Sunday, May 27, 2018, 3:39 PM GMT
Back to Local

CWVQ, Ste Anne De Bell 1

Location: , , Canada Lat: 45.433
Local Time: 3:39 PM GMT (15:39 GMT) Lon: -73.933
Time Zone: GMT Elev: 127 ft

Show me the last for .
Show Coded

Time T Td Feel RH Dir Speed Gust Alt SLP Vis Weather Sky Remarks
2018-05-27 15:00 66 53 - 64 90° 10 17 - 30.04 0 None
2018-05-27 14:00 61 48 - 63 50° 7 - - 30.04 0 None
2018-05-27 13:00 60 47 - 62 40° 9 - - 30.03 0 None
2018-05-27 12:00 56 44 - 63 40° 7 - - 30.03 0 None
2018-05-27 11:00 55 43 - 63 40° 9 - - 30.02 0 None
2018-05-27 10:00 54 43 - 66 30° 8 - - 30.00 0 None
2018-05-27 09:00 54 42 - 64 40° 9 - - 30.00 0 None
2018-05-27 08:00 55 44 - 65 30° 7 - - 30.00 0 None
2018-05-27 07:00 56 44 - 64 30° 8 - - 30.00 0 None
2018-05-27 06:00 58 41 - 53 30° 7 - - 29.99 0 None
2018-05-27 05:00 59 40 - 49 30° 3 - - 30.00 0 None
2018-05-27 04:00 60 41 - 47 40° 3 - - 29.99 0 None
2018-05-27 03:00 57 47 - 68 20° 3 - - 29.98 0 None
2018-05-27 02:00 63 44 - 50 60° 3 - - 29.96 0 None
2018-05-27 01:00 65 42 - 43 60° 2 - - 29.93 0 None
2018-05-27 00:00 69 42 - 37 60° 2 - - 29.91 0 None
2018-05-26 23:00 70 53 - 55 100° 2 - - 29.90 0 None
2018-05-26 22:00 70 52 - 53 150° 3 - - 29.88 0 None
2018-05-26 21:00 70 52 76 52 130° 5 - - 29.87 0 None
2018-05-26 20:00 69 53 - 56 130° 7 - - 29.85 0 None
2018-05-26 19:00 69 53 - 58 150° 6 - - 29.84 0 None
2018-05-26 18:00 68 56 - 65 150° 5 - - 29.83 0 None
2018-05-26 17:00 65 54 - 68 100° 6 - - 29.83 0 None
2018-05-26 16:00 61 52 - 71 40° 7 - - 29.81 0 None

Support USWX by starting your Amazon purchase here.